Time;durP1;ratioP1;P1;durP2;ratioP2;P2;SDS_P1;SDS_P2;PMS_P1;PMS_P2;Temp;Humidity;BMP_temperature;BMP_pressure;BME280_temperature;BME280_humidity;BME280_pressure;Samples;Min_cycle;Max_cycle;Signal;HPM_P1;HPM_P2
2022/01/16 00:04:45;;;;;;;23.52;10.38;;;;;;;1.04;88.61;102544.69;5032108;28;20483;-46
2022/01/16 00:07:11;;;;;;;33.92;10.07;;;;;;;1.03;88.72;102543.03;5038326;28;20037;-46
2022/01/16 00:09:37;;;;;;;33.38;9.10;;;;;;;1.09;88.92;102547.78;5039163;28;20311;-46
2022/01/16 00:12:05;;;;;;;21.17;9.05;;;;;;;1.16;88.76;102540.94;5037560;28;20029;-46
2022/01/16 00:14:32;;;;;;;24.23;8.63;;;;;;;1.21;88.48;102530.78;5035513;28;20033;-46
2022/01/16 00:16:58;;;;;;;23.98;8.68;;;;;;;1.24;88.36;102525.19;5037539;28;20036;-47
2022/01/16 00:19:23;;;;;;;23.77;9.13;;;;;;;1.25;88.02;102533.94;5038731;28;20059;-46
2022/01/16 00:21:49;;;;;;;23.58;9.35;;;;;;;1.20;88.19;102539.66;5040929;28;20025;-46
2022/01/16 00:24:15;;;;;;;28.08;8.90;;;;;;;1.17;88.15;102547.88;5039869;28;20028;-46
2022/01/16 00:26:41;;;;;;;24.58;8.73;;;;;;;1.20;88.19;102547.59;5038357;28;20037;-45
2022/01/16 00:29:08;;;;;;;22.70;9.45;;;;;;;1.21;88.16;102528.13;5038888;28;20245;-46
2022/01/16 00:31:35;;;;;;;25.15;9.48;;;;;;;1.22;88.12;102508.66;5038005;28;20033;-46
2022/01/16 00:34:00;;;;;;;27.98;9.40;;;;;;;1.26;87.98;102538.25;5038443;28;20032;-47
2022/01/16 00:36:26;;;;;;;27.20;8.73;;;;;;;1.27;87.85;102543.41;5039094;28;20032;-46
2022/01/16 00:38:53;;;;;;;23.02;9.10;;;;;;;1.30;87.81;102548.41;5040466;28;20025;-46
2022/01/16 00:41:21;;;;;;;25.00;8.57;;;;;;;1.30;87.69;102548.41;5035797;28;20354;-46
2022/01/16 00:43:51;;;;;;;23.02;8.10;;;;;;;1.29;87.92;102545.91;5040135;28;20021;-46
2022/01/16 00:46:17;;;;;;;23.85;8.60;;;;;;;1.36;87.67;102534.63;5036763;28;20024;-47
2022/01/16 00:48:43;;;;;;;26.20;8.55;;;;;;;1.39;87.37;102518.47;5037801;28;20136;-46
2022/01/16 00:51:09;;;;;;;24.90;7.70;;;;;;;1.42;87.38;102518.19;5039396;28;20455;-47
2022/01/16 00:53:34;;;;;;;22.90;9.57;;;;;;;1.43;87.26;102519.03;5036685;28;20313;-47
2022/01/16 00:56:06;;;;;;;23.40;9.65;;;;;;;1.41;86.95;102495.41;5037963;28;20498;-46
2022/01/16 00:58:32;;;;;;;24.92;7.97;;;;;;;1.34;87.03;102482.94;5039387;28;20429;-46
2022/01/16 01:00:57;;;;;;;23.40;7.97;;;;;;;1.38;87.18;102479.84;5039945;28;20025;-45
2022/01/16 01:03:23;;;;;;;26.33;8.68;;;;;;;1.40;87.14;102485.81;5037656;28;20539;-46
2022/01/16 01:05:48;;;;;;;20.00;7.50;;;;;;;1.36;86.97;102470.41;5037740;28;20048;-46
2022/01/16 01:08:14;;;;;;;24.33;10.00;;;;;;;1.31;87.07;102494.63;5039203;28;20025;-47
2022/01/16 01:10:42;;;;;;;27.35;8.57;;;;;;;1.29;87.48;102480.72;5038125;28;20098;-46
2022/01/16 01:13:22;;;;;;;19.95;8.25;;;;;;;1.31;87.44;102489.34;5038150;28;20591;-46
2022/01/16 01:15:51;;;;;;;20.58;8.02;;;;;;;1.31;87.18;102480.59;5039000;28;20066;-46
2022/01/16 01:18:20;;;;;;;27.55;8.50;;;;;;;1.13;87.11;102481.34;5035678;28;20031;-46
2022/01/16 01:20:48;;;;;;;27.92;9.07;;;;;;;1.01;87.54;102466.63;5040519;28;20032;-46
2022/01/16 01:23:18;;;;;;;21.88;8.13;;;;;;;1.07;88.27;102457.31;5034608;28;20017;-46
2022/01/16 01:25:44;;;;;;;24.08;9.65;;;;;;;1.18;88.22;102467.69;5034141;28;20402;-46
2022/01/16 01:28:11;;;;;;;19.02;7.97;;;;;;;1.26;87.97;102470.47;5038305;28;20107;-45
2022/01/16 01:30:39;;;;;;;21.63;7.60;;;;;;;1.23;87.52;102449.59;5038679;28;20128;-46
2022/01/16 01:33:05;;;;;;;23.23;7.85;;;;;;;1.23;87.59;102454.88;5039295;28;20535;-46
2022/01/16 01:35:36;;;;;;;26.20;7.95;;;;;;;1.24;87.58;102479.47;5033982;28;20029;-46
2022/01/16 01:38:03;;;;;;;25.13;8.23;;;;;;;1.17;87.35;102469.50;5038607;28;20039;-46
2022/01/16 01:40:29;;;;;;;24.52;7.75;;;;;;;1.17;87.72;102460.75;5034487;28;20162;-46
2022/01/16 01:51:15;;;;;;;20.08;7.57;;;;;;;1.25;87.21;102347.31;5037194;28;20039;-45
2022/01/16 01:53:42;;;;;;;27.48;8.57;;;;;;;1.27;87.29;102337.47;5038798;28;20483;-46
2022/01/16 01:56:10;;;;;;;19.40;6.80;;;;;;;1.29;87.22;102327.56;5035855;28;20025;-46
2022/01/16 01:58:36;;;;;;;25.70;8.32;;;;;;;1.36;87.17;102344.47;5036037;28;21290;-46
2022/01/16 02:01:03;;;;;;;17.02;7.05;;;;;;;1.39;87.03;102346.81;5038973;28;20028;-46
2022/01/16 02:05:57;;;;;;;19.65;7.35;;;;;;;1.47;86.41;102359.28;5036293;28;20033;-46
2022/01/16 02:08:23;;;;;;;18.05;7.03;;;;;;;1.51;86.58;102363.28;5036828;28;20024;-46
2022/01/16 02:10:48;;;;;;;22.85;7.03;;;;;;;1.55;86.08;102384.94;5038693;28;20075;-47
2022/01/16 02:13:26;;;;;;;15.35;6.75;;;;;;;1.54;85.81;102370.09;5037700;28;20032;-47
2022/01/16 02:27:59;;;;;;;22.33;6.93;;;;;;;1.54;85.96;102367.44;5035369;28;20115;-46
2022/01/16 02:35:01;;;;;;;21.00;6.13;;;;;;;1.29;85.22;102337.31;5036524;28;20040;-46
2022/01/16 02:37:26;;;;;;;20.00;7.18;;;;;;;1.17;85.48;102332.22;5038844;28;20033;-46
2022/01/16 02:39:54;;;;;;;25.13;6.80;;;;;;;1.18;85.98;102330.41;5038435;28;20391;-47
2022/01/16 02:42:26;;;;;;;22.38;5.53;;;;;;;1.20;85.75;102331.09;5036499;28;20494;-46
2022/01/16 02:45:01;;;;;;;20.13;6.75;;;;;;;1.18;85.53;102335.69;5037835;28;20090;-46
2022/01/16 02:47:26;;;;;;;17.90;6.35;;;;;;;1.23;85.71;102337.88;5036582;28;20086;-46
2022/01/16 02:49:53;;;;;;;28.35;6.28;;;;;;;1.27;85.63;102349.81;5037047;28;20033;-46
2022/01/16 02:52:21;;;;;;;19.67;7.25;;;;;;;1.32;85.44;102337.00;5040560;28;20036;-47
2022/01/16 02:54:49;;;;;;;19.73;8.38;;;;;;;1.35;84.72;102332.25;5041894;28;20419;-46
2022/01/16 02:57:18;;;;;;;21.20;7.35;;;;;;;1.28;84.58;102336.47;5040644;28;20607;-46
2022/01/16 02:59:49;;;;;;;22.42;6.95;;;;;;;1.24;84.67;102324.53;5046715;28;20131;-46
2022/01/16 03:02:16;;;;;;;21.70;7.03;;;;;;;1.23;84.88;102322.88;5040740;28;20025;-46
2022/01/16 03:04:42;;;;;;;18.17;6.93;;;;;;;1.24;84.50;102302.56;5039909;28;20033;-48
2022/01/16 03:07:07;;;;;;;28.42;7.47;;;;;;;1.15;84.40;102309.59;5039082;28;20032;-47
2022/01/16 03:12:17;;;;;;;21.30;6.30;;;;;;;1.14;84.25;102300.84;5039513;28;20104;-47
2022/01/16 03:14:43;;;;;;;26.65;6.82;;;;;;;1.08;84.03;102292.69;5042368;28;20024;-47
2022/01/16 03:17:10;;;;;;;22.80;7.15;;;;;;;1.08;84.16;102285.59;5040591;28;20051;-46
2022/01/16 03:22:20;;;;;;;18.45;7.35;;;;;;;1.12;83.82;102273.75;5036142;28;20028;-46
2022/01/16 03:24:47;;;;;;;24.63;6.95;;;;;;;1.16;83.88;102264.56;5038918;28;20379;-46
2022/01/16 03:27:17;;;;;;;20.35;6.57;;;;;;;1.19;83.85;102258.16;5040845;28;20494;-47
2022/01/16 03:29:51;;;;;;;24.98;8.25;;;;;;;1.25;83.90;102252.25;5042215;28;20063;-47
2022/01/16 03:32:19;;;;;;;23.80;7.90;;;;;;;1.28;83.59;102245.88;5038532;28;20056;-47
2022/01/16 03:34:46;;;;;;;25.15;6.80;;;;;;;1.25;83.71;102231.13;5038357;28;20091;-46
2022/01/16 03:37:12;;;;;;;20.73;6.45;;;;;;;1.28;83.51;102236.13;5040538;28;20107;-46
2022/01/16 03:39:38;;;;;;;22.70;6.85;;;;;;;1.28;83.48;102235.31;5040650;28;20108;-46
2022/01/16 03:42:04;;;;;;;19.88;7.43;;;;;;;1.25;83.34;102233.78;5039389;28;20026;-46
2022/01/16 03:44:29;;;;;;;23.67;6.13;;;;;;;1.26;82.99;102229.31;5039126;28;20029;-46
2022/01/16 03:46:55;;;;;;;21.35;6.22;;;;;;;1.26;82.99;102229.31;5039960;28;20021;-46
2022/01/16 03:49:24;;;;;;;22.40;7.38;;;;;;;1.26;83.15;102214.34;5037598;28;20024;-46
2022/01/16 03:51:51;;;;;;;24.30;7.75;;;;;;;1.28;83.03;102214.19;5038761;28;20087;-46
2022/01/16 03:54:20;;;;;;;22.83;6.38;;;;;;;1.28;82.96;102207.09;5040599;28;20021;-47
2022/01/16 03:56:46;;;;;;;27.65;8.07;;;;;;;1.24;82.64;102203.06;5040908;28;20382;-46
2022/01/16 03:59:12;;;;;;;23.08;7.07;;;;;;;1.13;82.57;102192.75;5036533;28;20024;-46
2022/01/16 04:01:39;;;;;;;21.10;6.00;;;;;;;1.09;82.73;102194.03;5040523;28;20196;-46
2022/01/16 04:04:05;;;;;;;19.45;7.13;;;;;;;1.09;83.04;102188.75;5038310;28;20095;-46
2022/01/16 04:06:31;;;;;;;20.27;6.40;;;;;;;1.03;82.77;102184.06;5034450;28;20036;-46
2022/01/16 04:08:56;;;;;;;22.42;5.78;;;;;;;1.03;82.40;102170.88;5041490;28;20029;-46
2022/01/16 04:11:25;;;;;;;18.33;6.07;;;;;;;0.98;82.75;102170.50;5041639;28;20107;-46
2022/01/16 04:13:54;;;;;;;17.80;5.85;;;;;;;1.03;82.97;102168.22;5041135;28;20139;-46
2022/01/16 04:16:22;;;;;;;18.85;5.47;;;;;;;1.03;82.72;102178.78;5037531;28;20394;-46
2022/01/16 04:18:50;;;;;;;19.48;4.95;;;;;;;1.08;82.66;102184.47;5038705;28;20021;-46
2022/01/16 04:21:21;;;;;;;24.20;6.57;;;;;;;1.01;82.90;102175.47;5036306;28;20027;-47
2022/01/16 04:23:46;;;;;;;14.23;4.75;;;;;;;1.01;82.70;102175.47;5040350;28;20107;-46
2022/01/16 04:26:13;;;;;;;27.50;5.65;;;;;;;1.04;82.52;102177.81;5035802;28;20151;-46
2022/01/16 04:28:38;;;;;;;23.20;5.68;;;;;;;1.03;82.72;102173.50;5040186;28;20041;-46
2022/01/16 04:31:04;;;;;;;14.20;5.32;;;;;;;1.08;82.66;102173.91;5040805;28;20533;-46
2022/01/16 04:33:30;;;;;;;17.25;5.50;;;;;;;1.12;82.48;102169.97;5037729;28;20021;-47
2022/01/16 04:35:56;;;;;;;16.00;5.60;;;;;;;1.14;82.47;102168.84;5040556;28;20021;-45
2022/01/16 04:38:21;;;;;;;21.88;6.40;;;;;;;1.15;81.89;102167.84;5038381;28;20125;-46
2022/01/16 04:43:48;;;;;;;18.60;5.32;;;;;;;1.10;81.91;102149.00;4999981;28;20578;-46
2022/01/16 04:46:15;;;;;;;28.60;6.20;;;;;;;1.08;82.00;102143.06;5039709;28;20071;-46
2022/01/16 04:48:40;;;;;;;18.17;5.05;;;;;;;1.11;82.27;102139.28;5038399;28;20076;-47
2022/01/16 04:51:06;;;;;;;18.52;5.70;;;;;;;1.10;82.01;102142.91;5039298;28;20025;-47
2022/01/16 04:53:31;;;;;;;19.38;4.72;;;;;;;1.08;82.27;102145.69;5038462;28;20062;-46
2022/01/16 04:55:57;;;;;;;20.35;4.63;;;;;;;1.11;82.12;102145.38;5040621;28;20453;-45
2022/01/16 04:58:22;;;;;;;18.27;5.63;;;;;;;1.11;82.45;102139.28;5038673;28;20036;-46
2022/01/16 05:00:48;;;;;;;21.23;5.28;;;;;;;1.20;82.47;102143.63;5040504;28;20052;-45
2022/01/16 05:03:14;;;;;;;20.02;4.47;;;;;;;1.26;82.63;102142.19;5037255;28;20436;-46
2022/01/16 05:05:39;;;;;;;12.80;4.40;;;;;;;1.32;82.35;102137.16;5039683;28;20036;-46
2022/01/16 05:08:05;;;;;;;10.93;3.80;;;;;;;1.43;82.50;102128.13;5039111;28;20627;-47
2022/01/16 05:10:31;;;;;;;17.00;5.13;;;;;;;1.51;82.08;102136.13;5038604;28;20029;-46
2022/01/16 05:13:15;;;;;;;16.08;4.32;;;;;;;1.52;81.79;102127.22;5038774;28;20275;-46
2022/01/16 05:18:24;;;;;;;21.52;5.22;;;;;;;1.63;81.83;102124.31;5037645;28;20036;-46
2022/01/16 05:20:50;;;;;;;16.48;4.22;;;;;;;1.69;81.65;102115.78;5037158;28;20263;-46
2022/01/16 05:23:15;;;;;;;25.15;6.15;;;;;;;1.67;81.77;102111.63;5039466;28;20021;-45
2022/01/16 05:25:41;;;;;;;15.93;5.18;;;;;;;1.70;81.54;102108.66;5039077;28;20025;-46
2022/01/16 05:28:06;;;;;;;12.40;5.30;;;;;;;1.70;81.32;102108.66;5038712;28;20255;-46
2022/01/16 05:30:32;;;;;;;18.58;6.40;;;;;;;1.70;81.34;102098.09;5035717;28;20541;-46
2022/01/16 05:32:57;;;;;;;19.25;6.15;;;;;;;1.68;81.45;102089.50;5038899;28;20032;-46
2022/01/16 05:35:22;;;;;;;14.57;6.45;;;;;;;1.66;81.48;102102.03;5037048;28;20028;-45
2022/01/16 05:37:48;;;;;;;18.13;5.03;;;;;;;1.66;81.35;102086.19;5038419;28;20021;-46
2022/01/16 05:40:13;;;;;;;18.02;6.10;;;;;;;1.66;81.28;102083.56;5038260;28;20116;-47
2022/01/16 05:42:39;;;;;;;15.55;4.95;;;;;;;1.65;81.31;102084.53;5039118;28;20430;-46
2022/01/16 05:45:05;;;;;;;19.80;4.68;;;;;;;1.66;81.44;102089.66;5038592;28;20127;-46
2022/01/16 05:47:30;;;;;;;13.85;4.30;;;;;;;1.67;81.46;102093.13;5035924;28;20025;-46
2022/01/16 05:49:56;;;;;;;16.02;6.03;;;;;;;1.60;81.45;102074.41;5038995;28;20033;-46
2022/01/16 05:52:21;;;;;;;19.67;4.65;;;;;;;1.63;81.96;102066.22;5036509;28;20050;-46
2022/01/16 05:54:47;;;;;;;22.55;5.18;;;;;;;1.60;81.48;102053.28;5036991;28;20029;-45
2022/01/16 05:57:12;;;;;;;23.08;4.55;;;;;;;1.62;81.40;102047.88;5037692;28;20104;-46
2022/01/16 05:59:38;;;;;;;16.20;4.30;;;;;;;1.59;81.32;102037.59;5038472;28;20033;-46
2022/01/16 06:02:04;;;;;;;15.52;4.63;;;;;;;1.51;81.57;102041.03;5037613;28;20033;-47
2022/01/16 06:04:29;;;;;;;17.27;4.28;;;;;;;1.52;81.51;102040.88;5036957;28;20037;-46
2022/01/16 06:06:55;;;;;;;14.55;4.22;;;;;;;1.50;81.68;102040.22;5037027;28;20027;-46
2022/01/16 06:09:21;;;;;;;20.17;4.90;;;;;;;1.45;81.65;102042.50;5037121;28;20378;-46
2022/01/16 06:11:46;;;;;;;20.50;5.05;;;;;;;1.42;81.59;102045.44;5038477;28;20021;-46
2022/01/16 06:14:12;;;;;;;19.23;4.65;;;;;;;1.35;81.75;102040.94;5038060;28;20077;-46
2022/01/16 06:16:38;;;;;;;18.00;5.70;;;;;;;1.30;81.96;102035.31;5037327;28;20064;-46
2022/01/16 06:19:03;;;;;;;22.23;5.55;;;;;;;1.32;81.92;102036.81;5040701;28;20412;-46
2022/01/16 06:21:29;;;;;;;18.70;5.32;;;;;;;1.31;82.04;102042.25;5033723;28;20113;-46
2022/01/16 06:23:55;;;;;;;21.67;4.60;;;;;;;1.32;81.78;102036.81;5038478;28;20025;-46
2022/01/16 06:26:20;;;;;;;23.60;5.32;;;;;;;1.25;81.93;102041.03;5036360;28;20494;-46
2022/01/16 06:28:45;;;;;;;18.77;4.53;;;;;;;1.25;81.92;102035.75;5038798;28;20207;-46
2022/01/16 06:31:11;;;;;;;22.23;5.80;;;;;;;1.20;82.21;102028.31;5038247;28;20479;-46
2022/01/16 06:33:36;;;;;;;12.05;4.35;;;;;;;1.21;82.26;102023.84;5037776;28;20157;-46
2022/01/16 06:36:03;;;;;;;10.68;3.92;;;;;;;1.20;82.22;102027.47;5035799;28;20103;-46
2022/01/16 06:38:29;;;;;;;30.83;5.22;;;;;;;1.23;82.22;102032.44;5034036;28;20033;-46
2022/01/16 06:40:54;;;;;;;19.08;6.25;;;;;;;1.22;82.25;102025.50;5037014;28;20018;-46
2022/01/16 06:43:20;;;;;;;22.20;4.85;;;;;;;1.20;82.16;102030.13;5036324;28;20134;-46
2022/01/16 06:45:45;;;;;;;18.27;5.03;;;;;;;1.22;82.21;102030.78;5037887;28;20066;-46
2022/01/16 06:48:10;;;;;;;18.67;5.38;;;;;;;1.25;82.02;102019.91;5037638;28;20028;-46
2022/01/16 06:50:36;;;;;;;15.20;4.93;;;;;;;1.24;82.05;102020.06;5036855;28;20754;-46
2022/01/16 06:53:02;;;;;;;16.60;4.30;;;;;;;1.22;82.09;102020.22;5036243;28;20456;-47
2022/01/16 06:55:27;;;;;;;15.13;4.70;;;;;;;1.15;82.10;102021.84;5033739;28;20036;-46
2022/01/16 06:57:53;;;;;;;16.65;5.45;;;;;;;1.15;82.01;102027.94;5037163;28;20029;-45
2022/01/16 07:00:18;;;;;;;18.13;5.35;;;;;;;1.14;82.14;102021.00;5036504;28;20406;-46
2022/01/16 07:02:44;;;;;;;19.58;4.75;;;;;;;1.08;82.10;102018.19;5038278;28;20025;-46
2022/01/16 07:05:10;;;;;;;22.02;5.35;;;;;;;1.08;82.41;102012.91;5036646;28;20032;-46
2022/01/16 07:07:35;;;;;;;18.67;3.88;;;;;;;1.07;82.53;102016.50;5037153;28;20041;-46
2022/01/16 07:10:01;;;;;;;13.70;4.40;;;;;;;1.06;82.22;102022.75;5038211;28;20115;-46
2022/01/16 07:12:27;;;;;;;20.67;4.90;;;;;;;1.04;82.38;102024.72;5036004;28;20116;-46
2022/01/16 07:14:52;;;;;;;17.80;4.50;;;;;;;0.99;82.28;102013.81;5036836;28;20502;-45
2022/01/16 07:17:18;;;;;;;16.58;4.05;;;;;;;0.95;82.34;102023.03;5035770;28;20025;-46
2022/01/16 07:19:43;;;;;;;17.48;4.85;;;;;;;0.84;82.47;102021.44;5038096;28;20104;-46
2022/01/16 07:22:09;;;;;;;15.82;4.60;;;;;;;0.77;82.58;102021.25;5037716;28;20033;-46
2022/01/16 07:24:34;;;;;;;12.18;4.40;;;;;;;0.74;82.86;102024.19;5036582;28;20037;-46
2022/01/16 07:27:03;;;;;;;18.08;4.63;;;;;;;0.73;83.13;102025.16;5038137;28;20029;-46
2022/01/16 07:29:29;;;;;;;11.75;4.65;;;;;;;0.69;83.13;102012.41;5035985;28;20028;-45
2022/01/16 07:31:55;;;;;;;17.23;5.45;;;;;;;0.67;83.15;102015.22;5037983;28;20497;-46
2022/01/16 07:34:21;;;;;;;19.45;4.28;;;;;;;0.70;83.29;102014.06;5032964;28;20025;-46
2022/01/16 07:36:46;;;;;;;20.45;5.50;;;;;;;0.74;83.09;102016.28;5040977;28;20605;-46
2022/01/16 07:39:12;;;;;;;22.33;5.28;;;;;;;0.75;83.06;102007.38;5041017;28;20044;-46
2022/01/16 07:41:37;;;;;;;17.52;5.38;;;;;;;0.77;83.11;102005.41;5040969;28;20037;-47
2022/01/16 07:44:03;;;;;;;14.27;4.57;;;;;;;0.75;82.85;102010.00;5039069;28;20275;-45
2022/01/16 07:46:29;;;;;;;11.35;4.05;;;;;;;0.78;83.10;102016.78;5039000;28;20039;-46
2022/01/16 07:48:54;;;;;;;17.27;4.38;;;;;;;0.77;83.11;102010.69;5039697;28;20114;-46
2022/01/16 07:51:20;;;;;;;12.98;4.32;;;;;;;0.80;83.23;102004.28;5039239;28;20489;-46
2022/01/16 07:53:45;;;;;;;15.93;4.28;;;;;;;0.83;83.00;102002.16;5040225;28;20076;-47
2022/01/16 07:56:11;;;;;;;16.02;4.75;;;;;;;0.81;82.98;102001.47;5040287;28;20066;-46
2022/01/16 07:58:37;;;;;;;19.13;5.25;;;;;;;0.81;82.88;101992.72;5040567;28;20029;-45
2022/01/16 08:01:03;;;;;;;18.42;4.60;;;;;;;0.79;82.77;101984.97;5038715;28;20153;-46
2022/01/16 08:03:29;;;;;;;16.02;4.13;;;;;;;0.76;82.92;101987.94;5035744;28;20153;-45
2022/01/16 08:05:54;;;;;;;20.23;4.78;;;;;;;0.76;82.82;101990.56;5036567;28;20455;-47
2022/01/16 08:08:20;;;;;;;23.20;5.03;;;;;;;0.76;82.79;101992.38;5038815;28;20021;-46
2022/01/16 08:10:45;;;;;;;16.73;6.10;;;;;;;0.71;82.90;101986.72;5045203;28;20038;-46
2022/01/16 08:13:11;;;;;;;14.18;4.72;;;;;;;0.75;82.86;101985.44;5041118;28;20498;-46
2022/01/16 08:15:36;;;;;;;17.45;4.47;;;;;;;0.69;82.82;101983.41;5044248;28;20457;-46
2022/01/16 08:18:02;;;;;;;14.20;4.22;;;;;;;0.72;82.90;101976.03;5040394;28;20094;-45
2022/01/16 08:20:27;;;;;;;13.73;4.10;;;;;;;0.74;83.09;101970.59;5042749;28;20033;-46
2022/01/16 08:22:54;;;;;;;18.98;5.35;;;;;;;0.68;82.78;101977.28;5038424;28;20171;-46
2022/01/16 08:25:20;;;;;;;16.50;4.50;;;;;;;0.64;82.73;101983.03;5043920;28;20041;-46
2022/01/16 08:27:46;;;;;;;18.20;4.50;;;;;;;0.62;83.13;101971.81;5036320;28;20061;-46
2022/01/16 08:30:11;;;;;;;15.15;4.30;;;;;;;0.50;83.59;101974.69;5042023;28;20321;-45
2022/01/16 08:32:38;;;;;;;16.60;4.82;;;;;;;0.53;83.29;101965.63;5043461;28;20057;-46
2022/01/16 08:35:05;;;;;;;22.90;6.80;;;;;;;0.57;83.48;101961.72;5042468;28;20032;-46
2022/01/16 08:37:30;;;;;;;14.73;5.78;;;;;;;0.58;83.38;101952.84;5044421;28;20033;-46
2022/01/16 08:39:56;;;;;;;16.67;4.63;;;;;;;0.58;83.57;101948.38;5040739;28;20032;-47
2022/01/16 08:42:22;;;;;;;18.23;4.72;;;;;;;0.62;83.41;101943.63;5036802;28;20027;-46
2022/01/16 08:44:49;;;;;;;16.30;4.55;;;;;;;0.65;83.33;101940.69;5041855;28;20032;-46
2022/01/16 08:47:14;;;;;;;19.52;6.80;;;;;;;0.65;83.47;101935.41;5040735;28;20029;-47
2022/01/16 08:49:40;;;;;;;18.92;4.80;;;;;;;0.69;83.45;101920.09;5041358;28;20087;-46
2022/01/16 08:52:06;;;;;;;23.23;4.90;;;;;;;0.77;83.34;101915.72;5037082;28;20036;-46
2022/01/16 08:54:33;;;;;;;15.73;3.80;;;;;;;0.81;83.21;101905.66;5042394;28;20028;-46
2022/01/16 08:56:59;;;;;;;21.58;4.47;;;;;;;0.86;83.16;101898.94;5038983;28;20029;-47
2022/01/16 08:59:25;;;;;;;19.02;4.47;;;;;;;0.93;83.09;101901.78;5035324;28;20039;-46
2022/01/16 09:01:50;;;;;;;17.08;4.88;;;;;;;0.97;82.58;101900.50;5037942;28;20048;-50
2022/01/16 09:04:15;;;;;;;18.52;6.00;;;;;;;1.00;82.54;101894.88;5033038;28;20515;-46
2022/01/16 09:06:41;;;;;;;17.52;4.80;;;;;;;0.97;82.33;101889.94;5036589;28;20020;-46
2022/01/16 09:09:06;;;;;;;15.25;4.78;;;;;;;0.94;82.73;101884.16;5039510;28;20128;-46
2022/01/16 09:11:32;;;;;;;19.27;5.15;;;;;;;0.95;82.94;101885.81;5036008;28;20037;-46
2022/01/16 09:13:58;;;;;;;15.30;5.25;;;;;;;0.93;82.91;101888.59;5032126;28;20029;-47
2022/01/16 09:16:24;;;;;;;17.85;6.15;;;;;;;0.98;82.96;101881.03;5040504;28;20029;-46
2022/01/16 09:18:50;;;;;;;27.73;7.35;;;;;;;1.03;83.12;101889.28;5036229;28;20104;-47
2022/01/16 09:21:17;;;;;;;18.27;5.28;;;;;;;1.08;83.10;101894.94;5035426;28;20074;-46
2022/01/16 09:23:47;;;;;;;25.48;6.65;;;;;;;1.15;82.95;101887.22;5039311;28;20265;-46
2022/01/16 09:26:14;;;;;;;20.02;6.32;;;;;;;1.17;82.67;101895.81;5039318;28;20061;-45
2022/01/16 09:28:41;;;;;;;21.30;6.43;;;;;;;1.18;82.89;101881.63;5037562;28;20389;-46
2022/01/16 09:31:07;;;;;;;20.80;6.03;;;;;;;1.18;82.95;101887.72;5039268;28;20450;-46
2022/01/16 09:33:33;;;;;;;16.00;6.03;;;;;;;1.31;82.91;101879.38;5038838;28;20023;-46
2022/01/16 09:35:59;;;;;;;20.65;6.32;;;;;;;1.40;82.37;101881.03;5037603;28;20037;-46
2022/01/16 09:38:25;;;;;;;20.35;5.78;;;;;;;1.44;82.10;101871.81;5040372;28;20035;-46
2022/01/16 09:40:51;;;;;;;15.75;6.00;;;;;;;1.46;81.99;101869.84;5037129;28;20029;-47
2022/01/16 09:43:18;;;;;;;22.95;6.93;;;;;;;1.50;81.94;101871.16;5040078;28;20025;-46
2022/01/16 09:45:43;;;;;;;19.48;7.30;;;;;;;1.52;81.78;101873.66;5038350;28;20215;-46
2022/01/16 09:48:09;;;;;;;22.58;7.25;;;;;;;1.44;81.77;101887.66;5032059;28;20624;-46
2022/01/16 09:50:35;;;;;;;19.17;6.93;;;;;;;1.51;81.99;101877.28;5035885;28;20047;-46
2022/01/16 09:53:01;;;;;;;18.10;6.88;;;;;;;1.61;82.00;101871.84;5037187;28;20607;-46
2022/01/16 09:55:27;;;;;;;24.95;7.32;;;;;;;1.67;81.80;101872.03;5034195;28;20033;-47
2022/01/16 09:57:57;;;;;;;27.77;7.82;;;;;;;1.71;81.48;101868.06;5036904;28;20256;-46
2022/01/16 10:00:24;;;;;;;18.67;6.85;;;;;;;1.74;81.46;101861.63;5038333;28;20118;-46
2022/01/16 10:02:50;;;;;;;16.13;7.10;;;;;;;1.79;81.44;101852.22;5037230;28;20080;-47
2022/01/16 10:05:25;;;;;;;18.40;7.88;;;;;;;1.83;81.41;101857.19;5032222;28;20087;-46
2022/01/16 10:07:51;;;;;;;23.50;7.88;;;;;;;1.91;81.66;101855.38;5037188;28;20507;-46
2022/01/16 10:10:17;;;;;;;17.63;7.30;;;;;;;1.97;81.33;101862.63;5036176;28;20047;-46
2022/01/16 10:12:49;;;;;;;24.10;7.70;;;;;;;2.00;81.09;101858.88;5038290;28;20025;-46
2022/01/16 10:15:19;;;;;;;16.98;7.05;;;;;;;2.03;80.77;101854.06;5035889;28;20040;-46
2022/01/16 10:17:50;;;;;;;18.10;8.05;;;;;;;2.03;80.79;101856.72;5034035;28;20102;-46
2022/01/16 10:20:18;;;;;;;21.55;8.35;;;;;;;2.06;80.81;101844.97;5036314;28;20120;-46
2022/01/16 10:22:52;;;;;;;21.00;8.15;;;;;;;2.09;80.63;101850.75;5037767;28;20016;-46
2022/01/16 10:25:43;;;;;;;24.10;8.05;;;;;;;2.10;80.65;101847.13;5033634;28;20092;-46
2022/01/16 10:28:13;;;;;;;21.95;9.90;;;;;;;2.10;80.46;101846.28;5035728;28;20506;-46
2022/01/16 10:30:44;;;;;;;18.02;8.10;;;;;;;2.14;80.42;101842.31;5031815;28;20108;-46
2022/01/16 10:33:15;;;;;;;23.05;10.02;;;;;;;2.21;80.47;101838.03;5031781;28;20142;-46
2022/01/16 10:35:43;;;;;;;21.20;8.18;;;;;;;2.22;80.46;101817.72;5035135;28;20263;-47
2022/01/16 10:38:11;;;;;;;20.33;8.27;;;;;;;2.28;80.22;101817.03;5036272;28;20117;-46
2022/01/16 10:40:39;;;;;;;20.20;8.50;;;;;;;2.32;80.40;101815.69;5039693;28;20274;-46
2022/01/16 10:43:13;;;;;;;28.17;9.52;;;;;;;2.33;80.51;101818.16;5035373;28;20029;-45
2022/01/16 10:45:39;;;;;;;22.20;8.57;;;;;;;2.39;80.26;101804.31;5036721;28;20033;-46
2022/01/16 10:48:05;;;;;;;19.55;7.28;;;;;;;2.39;80.28;101814.06;5034591;28;20025;-46
2022/01/16 10:50:36;;;;;;;22.27;9.65;;;;;;;2.41;80.12;101804.94;5037982;28;20036;-48
2022/01/16 10:53:10;;;;;;;22.73;8.90;;;;;;;2.38;80.25;101801.81;5030472;28;20609;-46
2022/01/16 10:55:43;;;;;;;21.20;9.63;;;;;;;2.45;80.09;101797.50;5035929;28;20095;-46
2022/01/16 10:58:12;;;;;;;24.38;9.18;;;;;;;2.47;80.16;101798.16;5034842;28;20033;-46
2022/01/16 11:00:40;;;;;;;22.10;9.48;;;;;;;2.48;80.24;101801.63;5035176;28;20028;-46
2022/01/16 11:03:08;;;;;;;23.83;9.82;;;;;;;2.48;80.20;101806.91;5036684;28;20052;-46
2022/01/16 11:05:36;;;;;;;21.50;8.95;;;;;;;2.41;80.71;101806.78;5037678;28;20067;-46
2022/01/16 11:08:07;;;;;;;20.52;9.98;;;;;;;2.39;80.77;101814.06;5036503;28;20052;-46
2022/01/16 11:10:42;;;;;;;20.80;9.18;;;;;;;2.46;80.97;101811.53;5038561;28;20035;-47
2022/01/16 11:13:13;;;;;;;25.38;8.98;;;;;;;2.50;80.87;101799.63;5039330;28;20034;-46
2022/01/16 11:15:42;;;;;;;25.55;9.35;;;;;;;2.52;80.57;101795.84;5038355;28;20119;-46
2022/01/16 11:18:10;;;;;;;22.02;9.60;;;;;;;2.46;80.99;101790.38;5040122;28;20025;-46
2022/01/16 11:20:38;;;;;;;24.45;11.13;;;;;;;2.48;80.95;101783.94;5038310;28;20503;-46
2022/01/16 11:26:01;;;;;;;25.35;10.88;;;;;;;2.46;80.91;101788.56;4992297;28;20055;-46
2022/01/16 11:28:27;;;;;;;24.02;10.65;;;;;;;2.53;81.15;101794.03;5038047;28;20032;-46
2022/01/16 11:30:55;;;;;;;20.85;9.68;;;;;;;2.37;81.03;101810.75;5035922;28;20036;-47
2022/01/16 11:33:23;;;;;;;23.33;10.30;;;;;;;2.38;81.37;101807.13;5041151;28;20024;-46
2022/01/16 11:35:49;;;;;;;24.55;10.40;;;;;;;2.39;81.70;101819.34;5038690;28;20668;-46
2022/01/16 11:38:16;;;;;;;23.70;9.93;;;;;;;2.42;81.34;101813.72;5040035;28;20116;-46
2022/01/16 11:40:48;;;;;;;23.02;9.90;;;;;;;2.24;81.67;101810.44;5039214;28;20052;-46
2022/01/16 11:43:30;;;;;;;23.85;10.65;;;;;;;2.24;81.06;101811.25;5039925;28;20025;-46
2022/01/16 11:46:05;;;;;;;21.67;10.18;;;;;;;2.22;80.94;101818.53;5035467;28;20025;-46
2022/01/16 11:48:37;;;;;;;22.35;11.15;;;;;;;2.19;80.50;101823.34;5038101;28;20075;-46
2022/01/16 11:51:04;;;;;;;23.17;11.75;;;;;;;2.23;80.95;101819.38;5031754;28;21010;-46
2022/01/16 11:53:53;;;;;;;26.48;12.00;;;;;;;2.24;80.91;101826.31;5040677;28;20059;-46
2022/01/16 11:56:40;;;;;;;24.75;11.13;;;;;;;2.18;80.96;101835.72;5038428;28;20029;-46
2022/01/16 11:59:20;;;;;;;24.83;12.32;;;;;;;2.25;81.18;101843.81;5034241;28;20052;-46
2022/01/16 12:01:46;;;;;;;20.67;10.88;;;;;;;2.15;80.96;101848.44;5034791;28;20104;-46
2022/01/16 12:04:30;;;;;;;26.10;12.50;;;;;;;1.94;81.59;101839.19;5039224;28;20017;-46
2022/01/16 12:06:59;;;;;;;24.20;12.35;;;;;;;1.83;81.90;101833.41;5037993;28;20033;-46
2022/01/16 12:09:57;;;;;;;25.45;12.13;;;;;;;1.81;82.42;101823.84;5037702;28;20382;-46